• Join FlightAware (Why Join?)
  • Login
  • US Flag 
01:03PM EDT


 

Airport Tracker/Info


-or-


 

Live Flight TrackerFlight Track Log ✈ EJA930 ✈ 23-Jun-2013 ✈ KSMO - KSNS

Flight Track Log - Related Links

Times and Time Zones

All times are in EDT time to prevent confusion due to time zone crossing. See the EJA930 flight status page for this flight to view local times or setup timezone preferences in your user account.

Time Position Orientation Groundspeed Altitude Reporting Facility
EDT Latitude Longitude Course Direction KTS MPH feet Rate Location/Type
02:51PM 34.0000 -118.4667 267° West 176 203 1,500  Level Southern California TRACON
02:52PM 33.9958 -118.5631 267° West 225 259 6,200 2,220 Climbing Los Angeles Center
02:54PM 34.0086 -118.6556 279° West 284 327 7,100 1,260 Climbing Los Angeles Center
02:55PM 34.0936 -118.6681 353° North 285 328 9,100 1,320 Climbing Los Angeles Center
02:56PM 34.1728 -118.6281 23° Northeast 303 349 9,900 1,500 Climbing Los Angeles Center
02:57PM 34.2578 -118.6447 351° North 316 364 12,200 1,980 Climbing Los Angeles Center
02:58PM 34.3519 -118.6728 346° North 343 395 14,000 1,740 Climbing Los Angeles Center
02:59PM 34.4528 -118.7028 346° North 371 427 15,800 1,740 Climbing Los Angeles Center
03:00PM 34.5556 -118.7361 345° North 382 440 17,600 1,860 Climbing Los Angeles Center
03:01PM 34.6750 -118.7986 337° Northwest 391 450 19,700 1,860 Climbing Los Angeles Center
03:02PM 34.7764 -118.8519 337° Northwest 395 455 21,500 1,740 Climbing Los Angeles Center
03:03PM 34.8708 -118.9256 327° Northwest 401 461 23,300 1,200 Climbing Los Angeles Center
03:04PM 34.9736 -119.0014 329° Northwest 418 481 24,000 300 Climbing Los Angeles Center
03:05PM 35.0819 -119.0819 329° Northwest 454 522 24,000  Level Los Angeles Center
03:06PM 35.1853 -119.1750 324° Northwest 487 560 24,000  Level Los Angeles Center
03:07PM 35.2800 -119.3217 308° West 462 532 24,000  Level Los Angeles Center
03:08PM 35.3558 -119.4439 307° West 455 524 24,000  Level Los Angeles Center
03:09PM 35.4325 -119.5664 308° West 455 524 24,000  Level Los Angeles Center
03:10PM 35.5075 -119.6861 308° West 445 512 24,000  Level Los Angeles Center
03:11PM 35.5789 -119.8025 307° West 433 498 24,000  Level Los Angeles Center
03:12PM 35.6639 -119.9411 307° West 428 493 24,000  Level Los Angeles Center
03:13PM 35.7358 -120.0572 307° West 431 496 24,000 -60 Level Los Angeles Center
03:14PM 35.8053 -120.1733 306° West 427 491 23,900 -660 Descending Los Angeles Center
03:15PM 35.8747 -120.2831 308° West 419 482 22,700 -1,200 Descending Los Angeles Center
03:16PM 35.9417 -120.3942 307° West 412 474 21,500 -1,500 Descending Los Angeles Center
03:17PM 36.0219 -120.5264 307° West 407 468 19,600 -1,740 Descending Los Angeles Center
03:18PM 36.0883 -120.6375 306° West 405 466 18,000 -1,620 Descending Los Angeles Center
03:20PM 36.1817 -120.7908 307° West 405 466 15,700 -1,680 Descending Oakland Center
03:21PM 36.2475 -120.9028 306° West 403 464 14,100 -1,620 Descending Oakland Center
03:22PM 36.3136 -121.0139 306° West 403 464 12,500 -1,560 Descending Oakland Center
03:23PM 36.3703 -121.1089 307° West 351 404 10,900 -1,440 Descending Oakland Center
03:24PM 36.4075 -121.2008 297° West 311 358 9,600 -1,440 Descending Oakland Center
03:25PM 36.4267 -121.2911 285° West 289 333 8,000 -1,500 Descending Oakland Center
03:26PM 36.4331 -121.3900 275° West 259 298 6,600 -1,320 Descending Oakland Center
03:27PM 36.4608 -121.4517 299° West 229 264 5,300 -1,380 Descending Oakland Center
03:28PM 36.5008 -121.4922 321° Northwest 202 232 3,800 -1,320 Descending Oakland Center
03:29PM 36.5458 -121.5189 335° Northwest 187 215 2,600 -960 Descending Oakland Center
03:30PM 36.5800 -121.5428 331° Northwest 157 181 1,900 -540 Descending Oakland Center
03:31PM 36.6133 -121.5639 333° Northwest 148 170 1,500 -600 Descending Oakland Center
03:32PM 36.6497 -121.5589 North 133 153 700 -840 Descending Oakland Center
03:34PM 36.6500 -121.6000 North  Level FlightAware Approximate
03:41PM 36.6628 -121.6064 North  Level Estimated